OIMM Airport Information

Runway Information
Runway 13L Length 12503 ft width 148 ft
Elevation 3226 ft Threshold 0 ft Heading 134
Runway 31R Length 12503 ft Width 148 ft
Elevation 3257 ft Threshold 0 ft Heading 314
Runway 13R Length 12877 ft width 148 ft
Elevation 3231 ft Threshold 0 ft Heading 134
Runway 31L Length 12877 ft Width 148 ft
Elevation 3263 ft Threshold 0 ft Heading 314
Airport Frequencies
Type APP Name APP Frequency 127.3 MHZ
Type ATIS Name ATIS Frequency 126.4 MHZ
Type TWR Name TWR Frequency 118.1 MHZ
Airport Navaids
Type TACAN Name Mashhad Frequency 111900 KHZ
Type VOR-DME Name Mashhad Frequency 114000 KHZ
Type NDB Name Mashhad Frequency 385 KHZ
Airport Weather Information & NOTAM
ADDS - METARS form results

(2155 UTC 19 September 2020)
Data provider http://aviationweather.gov/metar/data/
 
METAR text: OIMM 192130Z 31004KT CAVOK 15/M04 Q1014 A2996
Conditions at: OIMM (MASHHAD (AFB/CIV, IR) observed 2130 UTC 19 September 2020
Temperature: 15.0°C (59°F)
Dewpoint: -4.0°C (25°F) [RH = 27%]
Pressure (altimeter): 29.94 inches Hg (1014.0 mb)
Winds: from the NW (310 degrees) at 5 MPH (4 knots; 2.1 m/s)
Visibility: 6 or more miles (10+ km)
Ceiling: ceiling and visibility are OK
Clouds: unknown
Weather: no significant weather observed at this time

METAR text: OIMM 192100Z 22006KT CAVOK 16/M07 Q1014 A2996
Conditions at: OIMM (MASHHAD (AFB/CIV, IR) observed 2100 UTC 19 September 2020
Temperature: 16.0°C (61°F)
Dewpoint: -7.0°C (19°F) [RH = 20%]
Pressure (altimeter): 29.94 inches Hg (1014.0 mb)
Winds: from the SW (220 degrees) at 7 MPH (6 knots; 3.1 m/s)
Visibility: 6 or more miles (10+ km)
Ceiling: ceiling and visibility are OK
Clouds: unknown
Weather: no significant weather observed at this time

Forecast for: OIMM (MASHHAD (AFB/CIV, IR)
Text: TAF OIMM 191750Z 1918/2024 17009KT CAVOK
Forecast period: 1800 UTC 19 September 2020 to 0200 UTC 20 September 2020
Forecast type: FROM: standard forecast or significant change
Winds: from the S (170 degrees) at 10 MPH (9 knots; 4.6 m/s)
Visibility: 6 or more miles (10+ km)
Ceiling: unknown
Clouds: missing
Weather: NSW  (no significant weather)
Text: BECMG 2002/2004 30008KT
Forecast period: 0200 UTC 20 September 2020 to 0000 UTC 21 September 2020
Forecast type: BECOMING: Conditions expected to become as follows by 0400 UTC 20 September 2020
Winds: from the WNW (300 degrees) at 9 MPH (8 knots; 4.1 m/s)
Visibility: 6 or more miles (10+ km)
Ceiling: unknown
Clouds: missing
Weather: NSW  (no significant weather)
Text: TEMPO 2006/2015 32018KT
Forecast period: 0600 to 1500 UTC 20 September 2020
Forecast type: TEMPORARY: The following changes expected for less than half the time period
Winds: from the NW (320 degrees) at 21 MPH (18 knots; 9.3 m/s)
Visibility: missing
Ceiling: unknown
Clouds: missing
Weather: no significant weather forecast for this period